Time;durP1;ratioP1;P1;durP2;ratioP2;P2;SDS_P1;SDS_P2;PMS_P1;PMS_P2;Temp;Humidity;BMP_temperature;BMP_pressure;BME280_temperature;BME280_humidity;BME280_pressure;Samples;Min_cycle;Max_cycle;Signal;HPM_P1;HPM_P2
2021/10/30 00:04:40;;;;;;;17.55;9.73;;;;;;;;;;10352756;28;20034;-75
2021/10/30 00:09:41;;;;;;;11.30;8.63;;;;;;;;;;10336604;28;20062;-75
2021/10/30 00:14:43;;;;;;;11.57;10.07;;;;;;;;;;10337335;28;20101;-75
2021/10/30 00:19:43;;;;;;;12.68;9.27;;;;;;;;;;10351411;28;20476;-75
2021/10/30 00:24:43;;;;;;;10.45;7.90;;;;;;;;;;10351373;28;20037;-75
2021/10/30 00:29:43;;;;;;;9.85;7.93;;;;;;;;;;10336126;28;20044;-75
2021/10/30 00:34:44;;;;;;;15.45;10.63;;;;;;;;;;10350952;28;20023;-75
2021/10/30 00:39:44;;;;;;;11.70;9.23;;;;;;;;;;10336315;28;20038;-75
2021/10/30 00:44:44;;;;;;;13.60;9.75;;;;;;;;;;10336618;28;20431;-75
2021/10/30 00:49:44;;;;;;;13.23;8.05;;;;;;;;;;10334663;28;20168;-75
2021/10/30 00:54:45;;;;;;;20.90;8.80;;;;;;;;;;10334570;28;20026;-75
2021/10/30 00:59:45;;;;;;;10.80;6.38;;;;;;;;;;10334915;28;20272;-75
2021/10/30 01:04:46;;;;;;;16.25;8.75;;;;;;;;;;10335418;28;20034;-75
2021/10/30 01:09:46;;;;;;;13.55;7.38;;;;;;;;;;10349741;28;20058;-75
2021/10/30 01:14:46;;;;;;;12.85;9.30;;;;;;;;;;10335833;28;20036;-75
2021/10/30 01:19:50;;;;;;;9.75;7.38;;;;;;;;;;10350866;28;20042;-75
2021/10/30 01:24:51;;;;;;;11.73;7.45;;;;;;;;;;10334746;28;20026;-75
2021/10/30 01:29:51;;;;;;;15.48;9.18;;;;;;;;;;10350134;28;20367;-75
2021/10/30 01:34:51;;;;;;;17.35;8.52;;;;;;;;;;10333324;28;20033;-75
2021/10/30 01:39:52;;;;;;;10.68;7.45;;;;;;;;;;10334759;28;20379;-75
2021/10/30 01:44:52;;;;;;;17.63;8.05;;;;;;;;;;10335343;28;20038;-75
2021/10/30 01:49:52;;;;;;;8.23;6.82;;;;;;;;;;10347809;28;20042;-76
2021/10/30 01:54:52;;;;;;;8.73;6.35;;;;;;;;;;10343503;28;20022;-75
2021/10/30 01:59:53;;;;;;;9.85;7.78;;;;;;;;;;10349843;28;20121;-75
2021/10/30 02:04:53;;;;;;;8.25;7.18;;;;;;;;;;10334147;28;20030;-74
2021/10/30 02:09:53;;;;;;;9.55;6.78;;;;;;;;;;10333999;28;20141;-76
2021/10/30 02:14:54;;;;;;;7.85;6.97;;;;;;;;;;10341963;28;20511;-75
2021/10/30 02:19:54;;;;;;;9.15;7.13;;;;;;;;;;10341981;28;20034;-75
2021/10/30 02:24:54;;;;;;;10.40;8.20;;;;;;;;;;10341088;28;20034;-75
2021/10/30 02:29:54;;;;;;;10.45;8.38;;;;;;;;;;10357319;28;20491;-75
2021/10/30 02:34:54;;;;;;;9.50;8.18;;;;;;;;;;10340656;28;20030;-75
2021/10/30 02:39:55;;;;;;;10.88;8.70;;;;;;;;;;10340722;28;20042;-75
2021/10/30 02:44:55;;;;;;;10.63;8.25;;;;;;;;;;10341145;28;20030;-75
2021/10/30 02:49:55;;;;;;;9.52;7.97;;;;;;;;;;10340946;28;20108;-75
2021/10/30 02:54:55;;;;;;;13.15;9.57;;;;;;;;;;10339393;28;20468;-75
2021/10/30 02:59:55;;;;;;;10.40;8.27;;;;;;;;;;10340540;28;20109;-75
2021/10/30 03:04:56;;;;;;;11.18;8.75;;;;;;;;;;10354721;28;20063;-76
2021/10/30 03:09:56;;;;;;;9.48;7.93;;;;;;;;;;10340123;28;20549;-75
2021/10/30 03:14:56;;;;;;;11.20;7.22;;;;;;;;;;10339442;28;20464;-75
2021/10/30 03:19:56;;;;;;;12.85;8.52;;;;;;;;;;10339981;28;20042;-75
2021/10/30 03:24:56;;;;;;;30.42;9.63;;;;;;;;;;10340452;28;20046;-76
2021/10/30 03:29:57;;;;;;;14.82;9.57;;;;;;;;;;10338427;28;20126;-76
2021/10/30 03:34:57;;;;;;;13.18;8.98;;;;;;;;;;10338811;28;20031;-75
2021/10/30 03:39:57;;;;;;;9.98;8.00;;;;;;;;;;10339145;28;20026;-75
2021/10/30 03:44:58;;;;;;;9.70;7.82;;;;;;;;;;10338152;28;20034;-75
2021/10/30 03:49:58;;;;;;;17.45;10.38;;;;;;;;;;10340360;28;20026;-75
2021/10/30 03:54:58;;;;;;;10.55;8.82;;;;;;;;;;10353628;28;20100;-76
2021/10/30 03:59:59;;;;;;;9.05;8.20;;;;;;;;;;10338268;28;20353;-75
2021/10/30 04:04:59;;;;;;;12.82;8.23;;;;;;;;;;10352943;28;20093;-75
2021/10/30 04:09:59;;;;;;;10.15;8.00;;;;;;;;;;10338397;28;20068;-75
2021/10/30 04:14:59;;;;;;;14.02;8.80;;;;;;;;;;10337862;28;20061;-75
2021/10/30 04:20:00;;;;;;;12.30;8.60;;;;;;;;;;10339723;28;20431;-75
2021/10/30 04:25:00;;;;;;;12.23;9.27;;;;;;;;;;10358690;28;20037;-75
2021/10/30 04:30:01;;;;;;;7.95;7.15;;;;;;;;;;10354770;28;20364;-75
2021/10/30 04:35:09;;;;;;;13.75;7.00;;;;;;;;;;10336421;28;20023;-75
2021/10/30 04:40:09;;;;;;;8.85;7.28;;;;;;;;;;10336571;28;20032;-75
2021/10/30 04:45:10;;;;;;;9.27;8.38;;;;;;;;;;10351407;28;20130;-76
2021/10/30 04:50:10;;;;;;;14.98;8.27;;;;;;;;;;10336121;28;20034;-75
2021/10/30 04:55:10;;;;;;;12.15;8.63;;;;;;;;;;10336202;28;20478;-76
2021/10/30 05:00:11;;;;;;;14.53;7.90;;;;;;;;;;10334607;28;20022;-75
2021/10/30 05:05:11;;;;;;;11.60;7.68;;;;;;;;;;10335341;28;20768;-76
2021/10/30 05:10:11;;;;;;;9.60;7.88;;;;;;;;;;10336053;28;20073;-77
2021/10/30 05:15:11;;;;;;;8.43;7.38;;;;;;;;;;10333771;28;20030;-80
2021/10/30 05:20:12;;;;;;;8.88;8.05;;;;;;;;;;10351140;28;20096;-80
2021/10/30 05:25:12;;;;;;;14.05;9.00;;;;;;;;;;10333895;28;20050;-80
2021/10/30 05:30:12;;;;;;;8.95;8.00;;;;;;;;;;10335668;28;20034;-80
2021/10/30 05:35:13;;;;;;;11.10;7.63;;;;;;;;;;10333883;28;20075;-78
2021/10/30 05:40:13;;;;;;;9.55;7.45;;;;;;;;;;10349410;28;20037;-78
2021/10/30 05:45:13;;;;;;;10.00;7.85;;;;;;;;;;10350307;28;20085;-78
2021/10/30 05:50:13;;;;;;;8.30;7.53;;;;;;;;;;10342217;28;20064;-78
2021/10/30 05:55:14;;;;;;;8.75;7.95;;;;;;;;;;10341588;28;20030;-78
2021/10/30 06:00:14;;;;;;;11.98;7.32;;;;;;;;;;10357843;28;20046;-78
2021/10/30 06:05:14;;;;;;;6.78;6.20;;;;;;;;;;10341037;28;20038;-78
2021/10/30 06:10:15;;;;;;;29.20;8.38;;;;;;;;;;10357776;28;20058;-78
2021/10/30 06:15:15;;;;;;;7.18;6.47;;;;;;;;;;10358172;28;20058;-79
2021/10/30 06:20:15;;;;;;;6.03;5.53;;;;;;;;;;10342279;28;20456;-79
2021/10/30 06:25:15;;;;;;;9.57;7.50;;;;;;;;;;10357936;28;20034;-81
2021/10/30 06:30:16;;;;;;;8.85;7.97;;;;;;;;;;10342148;28;20057;-79
2021/10/30 06:35:17;;;;;;;14.18;8.52;;;;;;;;;;10342302;28;20089;-79
2021/10/30 06:40:17;;;;;;;7.63;7.03;;;;;;;;;;10357163;28;20361;-80
2021/10/30 06:45:18;;;;;;;11.35;7.38;;;;;;;;;;10357739;28;20050;-79
2021/10/30 06:50:21;;;;;;;10.63;7.80;;;;;;;;;;10358452;28;20026;-80
2021/10/30 06:55:21;;;;;;;9.25;7.40;;;;;;;;;;10349781;28;20431;-78
2021/10/30 07:00:22;;;;;;;9.25;7.43;;;;;;;;;;10369096;28;20096;-78
2021/10/30 07:05:22;;;;;;;13.27;7.35;;;;;;;;;;10342207;28;20472;-79
2021/10/30 07:10:22;;;;;;;9.15;5.97;;;;;;;;;;10343126;28;20050;-81
2021/10/30 07:15:22;;;;;;;12.30;8.10;;;;;;;;;;10339858;28;20080;-81
2021/10/30 07:20:23;;;;;;;11.90;7.43;;;;;;;;;;10341053;28;20112;-79
2021/10/30 07:25:23;;;;;;;8.70;7.78;;;;;;;;;;10340058;28;20439;-79
2021/10/30 07:30:24;;;;;;;7.60;6.50;;;;;;;;;;10339575;28;20089;-80
2021/10/30 07:35:25;;;;;;;10.93;6.82;;;;;;;;;;10337642;28;20038;-77
2021/10/30 07:40:26;;;;;;;15.63;7.53;;;;;;;;;;10354904;28;20038;-79
2021/10/30 07:45:27;;;;;;;7.82;5.88;;;;;;;;;;10353970;28;20038;-79
2021/10/30 07:50:28;;;;;;;9.52;6.93;;;;;;;;;;10338073;28;20117;-80
2021/10/30 07:55:29;;;;;;;12.90;7.57;;;;;;;;;;10337255;28;20030;-79
2021/10/30 08:00:29;;;;;;;6.85;6.15;;;;;;;;;;10337882;28;20034;-80
2021/10/30 08:05:30;;;;;;;11.85;5.90;;;;;;;;;;10338837;28;20065;-80
2021/10/30 08:10:31;;;;;;;13.73;7.60;;;;;;;;;;10353298;28;20492;-80
2021/10/30 08:15:32;;;;;;;6.82;6.20;;;;;;;;;;10337200;28;20387;-80
2021/10/30 08:20:32;;;;;;;7.30;6.60;;;;;;;;;;10338173;28;20138;-80
2021/10/30 08:25:33;;;;;;;6.68;5.70;;;;;;;;;;10336904;28;20387;-79
2021/10/30 08:30:34;;;;;;;6.72;6.13;;;;;;;;;;10337355;28;20034;-80
2021/10/30 08:35:34;;;;;;;7.10;5.80;;;;;;;;;;10338093;28;20121;-80
2021/10/30 08:40:37;;;;;;;5.03;3.83;;;;;;;;;;10352692;28;20037;-80
2021/10/30 08:45:38;;;;;;;6.82;5.72;;;;;;;;;;10335503;28;20058;-80
2021/10/30 08:50:38;;;;;;;5.50;5.05;;;;;;;;;;10337192;28;20049;-80
2021/10/30 08:55:39;;;;;;;5.28;4.78;;;;;;;;;;10351907;28;20040;-81
2021/10/30 09:00:43;;;;;;;5.22;4.72;;;;;;;;;;10335431;28;20371;-80
2021/10/30 09:05:44;;;;;;;4.72;4.32;;;;;;;;;;10335045;28;20495;-82
2021/10/30 09:10:45;;;;;;;6.97;4.63;;;;;;;;;;10353948;28;20029;-81
2021/10/30 09:15:48;;;;;;;5.00;4.60;;;;;;;;;;10354428;28;20061;-81
2021/10/30 09:20:49;;;;;;;8.45;4.65;;;;;;;;;;10353367;28;20117;-81
2021/10/30 09:25:58;;;;;;;5.68;4.35;;;;;;;;;;10369885;28;20057;-80
2021/10/30 09:31:19;;;;;;;7.45;5.05;;;;;;;;;;10386988;28;20133;-80
2021/10/30 09:36:20;;;;;;;4.55;4.15;;;;;;;;;;10334485;28;20030;-80
2021/10/30 09:41:36;;;;;;;4.53;4.13;;;;;;;;;;10335359;28;20030;-80
2021/10/30 09:46:36;;;;;;;4.82;4.38;;;;;;;;;;10333392;28;20034;-79
2021/10/30 09:51:37;;;;;;;4.70;4.27;;;;;;;;;;10333884;28;20056;-80
2021/10/30 09:56:41;;;;;;;4.72;4.30;;;;;;;;;;10350688;28;20718;-76
2021/10/30 10:01:45;;;;;;;5.55;4.82;;;;;;;;;;10333138;28;20026;-80
2021/10/30 10:06:46;;;;;;;4.85;4.45;;;;;;;;;;10332840;28;20054;-80
2021/10/30 10:11:47;;;;;;;5.57;5.03;;;;;;;;;;10334429;28;20430;-79
2021/10/30 10:16:48;;;;;;;4.78;4.30;;;;;;;;;;10348297;28;20537;-80
2021/10/30 10:21:50;;;;;;;6.78;4.35;;;;;;;;;;10348979;28;20447;-79
2021/10/30 10:26:51;;;;;;;5.57;5.00;;;;;;;;;;10348727;28;20109;-80
2021/10/30 10:31:51;;;;;;;7.20;6.15;;;;;;;;;;10349268;28;20376;-79
2021/10/30 10:37:10;;;;;;;4.57;4.18;;;;;;;;;;10356107;28;20042;-78
2021/10/30 10:42:11;;;;;;;4.07;3.78;;;;;;;;;;10341029;28;20375;-80
2021/10/30 10:47:30;;;;;;;7.18;4.85;;;;;;;;;;10355383;28;20030;-81
2021/10/30 10:52:31;;;;;;;4.60;4.18;;;;;;;;;;10339599;28;20031;-80
2021/10/30 10:57:32;;;;;;;3.83;3.53;;;;;;;;;;10339301;28;20038;-81
2021/10/30 11:02:33;;;;;;;5.15;4.15;;;;;;;;;;10356643;28;20034;-80
2021/10/30 11:07:41;;;;;;;4.45;4.15;;;;;;;;;;10339069;28;20058;-80
2021/10/30 11:12:41;;;;;;;4.88;4.50;;;;;;;;;;10338198;28;20038;-79
2021/10/30 11:17:44;;;;;;;8.88;4.40;;;;;;;;;;10354235;28;20109;-79
2021/10/30 11:22:52;;;;;;;8.57;4.93;;;;;;;;;;10353979;28;20108;-81
2021/10/30 11:27:53;;;;;;;7.18;3.30;;;;;;;;;;10355119;28;20030;-80
2021/10/30 11:32:54;;;;;;;4.95;4.45;;;;;;;;;;10354728;28;20022;-79
2021/10/30 11:38:08;;;;;;;4.05;3.65;;;;;;;;;;10339408;28;20018;-80
2021/10/30 11:43:08;;;;;;;4.70;4.35;;;;;;;;;;10337492;28;20027;-79
2021/10/30 11:48:09;;;;;;;8.45;3.85;;;;;;;;;;10353096;28;20027;-79
2021/10/30 11:53:11;;;;;;;3.97;3.45;;;;;;;;;;10354983;28;20053;-79
2021/10/30 11:58:11;;;;;;;3.75;3.45;;;;;;;;;;10389632;28;20072;-79
2021/10/30 12:03:12;;;;;;;3.97;3.78;;;;;;;;;;10375867;28;20105;-80
2021/10/30 12:08:12;;;;;;;4.43;4.03;;;;;;;;;;10338809;28;20200;-80
2021/10/30 12:13:13;;;;;;;4.75;4.35;;;;;;;;;;10337789;28;20030;-79
2021/10/30 12:18:13;;;;;;;4.95;4.43;;;;;;;;;;10352539;28;20049;-79
2021/10/30 12:23:14;;;;;;;4.97;4.53;;;;;;;;;;10352353;28;20026;-80
2021/10/30 12:28:15;;;;;;;3.63;3.33;;;;;;;;;;10336242;28;20468;-82
2021/10/30 12:33:18;;;;;;;7.03;4.45;;;;;;;;;;10336604;28;20018;-81
2021/10/30 12:38:19;;;;;;;4.03;3.72;;;;;;;;;;10335462;28;20092;-81
2021/10/30 12:43:19;;;;;;;6.30;4.55;;;;;;;;;;10353016;28;20065;-82
2021/10/30 12:48:21;;;;;;;5.93;4.97;;;;;;;;;;10334559;28;20121;-80
2021/10/30 12:53:24;;;;;;;5.32;4.05;;;;;;;;;;10351598;28;20026;-79
2021/10/30 12:58:41;;;;;;;4.07;3.53;;;;;;;;;;10334081;28;20176;-80
2021/10/30 13:03:43;;;;;;;5.80;3.67;;;;;;;;;;10335204;28;20068;-79
2021/10/30 13:08:51;;;;;;;5.75;3.65;;;;;;;;;;10351065;28;20299;-81
2021/10/30 13:13:58;;;;;;;5.68;5.10;;;;;;;;;;10334187;28;20029;-80
2021/10/30 13:18:59;;;;;;;5.90;5.40;;;;;;;;;;10333107;28;20031;-80
2021/10/30 13:23:59;;;;;;;5.53;5.13;;;;;;;;;;10333575;28;20026;-80
2021/10/30 13:29:00;;;;;;;7.22;4.57;;;;;;;;;;10333823;28;20034;-80
2021/10/30 13:34:00;;;;;;;7.45;5.75;;;;;;;;;;10333059;28;20117;-80
2021/10/30 13:39:00;;;;;;;5.10;4.70;;;;;;;;;;10335307;28;20125;-80
2021/10/30 13:44:03;;;;;;;3.83;3.47;;;;;;;;;;10334812;28;20497;-82
2021/10/30 13:49:04;;;;;;;4.97;4.47;;;;;;;;;;10349540;28;20034;-81
2021/10/30 13:54:05;;;;;;;5.40;3.63;;;;;;;;;;10335453;28;20061;-79
2021/10/30 13:59:06;;;;;;;5.88;3.38;;;;;;;;;;10349606;28;20031;-79
2021/10/30 14:04:06;;;;;;;4.40;3.38;;;;;;;;;;10333123;28;20022;-79
2021/10/30 14:09:07;;;;;;;4.13;3.60;;;;;;;;;;10353314;28;20058;-80
2021/10/30 14:14:07;;;;;;;3.80;3.53;;;;;;;;;;10358595;28;20045;-79
2021/10/30 14:19:13;;;;;;;5.15;3.60;;;;;;;;;;10342981;28;20113;-79
2021/10/30 14:24:14;;;;;;;8.97;3.63;;;;;;;;;;10344010;28;20026;-79
2021/10/30 14:29:14;;;;;;;4.37;4.00;;;;;;;;;;10390640;28;20283;-80
2021/10/30 14:34:14;;;;;;;11.43;4.05;;;;;;;;;;10379922;28;20348;-79
2021/10/30 14:39:14;;;;;;;4.45;3.60;;;;;;;;;;10345056;28;20483;-80
2021/10/30 14:44:15;;;;;;;4.63;3.40;;;;;;;;;;10234947;28;29955;-79
2021/10/30 14:49:15;;;;;;;4.50;3.65;;;;;;;;;;10340927;28;20031;-79
2021/10/30 14:54:17;;;;;;;2.93;2.60;;;;;;;;;;10356863;28;20045;-79
2021/10/30 14:59:17;;;;;;;4.32;2.70;;;;;;;;;;10339753;28;20272;-79
2021/10/30 15:04:17;;;;;;;2.97;2.78;;;;;;;;;;10355708;28;20031;-79
2021/10/30 15:09:18;;;;;;;4.82;2.60;;;;;;;;;;10339021;28;20084;-79
2021/10/30 15:14:18;;;;;;;2.92;2.67;;;;;;;;;;10339440;28;20026;-79
2021/10/30 15:19:20;;;;;;;3.00;2.63;;;;;;;;;;10339642;28;20027;-79
2021/10/30 15:24:20;;;;;;;2.65;2.38;;;;;;;;;;10338217;28;20069;-79
2021/10/30 15:29:21;;;;;;;5.85;3.90;;;;;;;;;;10353515;28;20053;-79
2021/10/30 15:34:21;;;;;;;7.28;2.08;;;;;;;;;;10354422;28;20089;-79
2021/10/30 15:39:21;;;;;;;3.33;1.88;;;;;;;;;;10338000;28;20027;-79
2021/10/30 15:44:22;;;;;;;6.97;2.10;;;;;;;;;;10337418;28;20456;-79
2021/10/30 15:49:24;;;;;;;2.05;1.50;;;;;;;;;;10353742;28;20061;-79
2021/10/30 15:54:26;;;;;;;3.03;2.17;;;;;;;;;;10353837;28;20108;-79
2021/10/30 15:59:26;;;;;;;7.75;2.75;;;;;;;;;;10337024;28;20120;-79
2021/10/30 16:04:26;;;;;;;6.65;2.72;;;;;;;;;;10352628;28;20108;-79
2021/10/30 16:09:27;;;;;;;1.48;1.40;;;;;;;;;;10352715;28;20081;-79
2021/10/30 16:14:27;;;;;;;6.68;2.00;;;;;;;;;;10337988;28;20534;-79
2021/10/30 16:19:27;;;;;;;2.03;1.83;;;;;;;;;;10353376;28;20034;-79
2021/10/30 16:24:27;;;;;;;3.58;1.73;;;;;;;;;;10353216;28;20049;-78
2021/10/30 16:29:28;;;;;;;3.97;2.83;;;;;;;;;;10335797;28;20061;-78
2021/10/30 16:34:28;;;;;;;8.52;2.88;;;;;;;;;;10351487;28;20551;-79
2021/10/30 16:39:28;;;;;;;6.97;2.22;;;;;;;;;;10352116;28;20034;-79
2021/10/30 16:44:28;;;;;;;5.13;1.65;;;;;;;;;;10336087;28;20523;-78
2021/10/30 16:49:30;;;;;;;2.92;2.30;;;;;;;;;;10352014;28;20031;-79
2021/10/30 16:54:30;;;;;;;7.68;2.17;;;;;;;;;;10334935;28;20030;-79
2021/10/30 16:59:36;;;;;;;6.07;2.90;;;;;;;;;;10335885;28;20042;-79
2021/10/30 17:04:36;;;;;;;6.35;3.75;;;;;;;;;;10354051;28;20379;-78
2021/10/30 17:09:36;;;;;;;4.93;2.15;;;;;;;;;;10342378;28;20145;-79
2021/10/30 17:14:37;;;;;;;11.38;2.70;;;;;;;;;;10352443;28;20034;-79
2021/10/30 17:19:37;;;;;;;4.32;3.13;;;;;;;;;;10335472;28;20096;-79
2021/10/30 17:24:38;;;;;;;9.55;4.05;;;;;;;;;;10335623;28;20462;-79
2021/10/30 17:29:39;;;;;;;22.00;7.88;;;;;;;;;;10333844;28;20475;-79
2021/10/30 17:34:39;;;;;;;10.00;3.10;;;;;;;;;;10334947;28;20072;-79
2021/10/30 17:39:40;;;;;;;10.23;3.60;;;;;;;;;;10333981;28;20378;-79
2021/10/30 17:44:42;;;;;;;16.23;4.70;;;;;;;;;;10334850;28;20407;-79
2021/10/30 17:49:44;;;;;;;9.98;4.78;;;;;;;;;;10333603;28;20424;-78
2021/10/30 17:54:44;;;;;;;5.28;3.13;;;;;;;;;;10350600;28;20085;-78
2021/10/30 17:59:44;;;;;;;16.27;3.67;;;;;;;;;;10335111;28;20077;-79
2021/10/30 18:04:45;;;;;;;22.50;4.88;;;;;;;;;;10348694;28;20485;-78
2021/10/30 18:09:45;;;;;;;6.13;3.45;;;;;;;;;;10332715;28;20407;-78
2021/10/30 18:14:45;;;;;;;4.15;3.53;;;;;;;;;;10333378;28;20475;-79
2021/10/30 18:19:46;;;;;;;12.38;3.15;;;;;;;;;;10332830;28;20486;-79
2021/10/30 18:24:46;;;;;;;10.00;4.80;;;;;;;;;;10349281;28;20038;-78
2021/10/30 18:29:47;;;;;;;10.95;4.18;;;;;;;;;;10348744;28;20688;-79
2021/10/30 18:34:49;;;;;;;6.22;3.90;;;;;;;;;;10348331;28;20062;-78
2021/10/30 18:39:49;;;;;;;9.63;4.55;;;;;;;;;;10334507;28;20482;-78
2021/10/30 18:44:49;;;;;;;13.05;4.25;;;;;;;;;;10332522;28;20030;-78
2021/10/30 18:49:49;;;;;;;10.02;4.38;;;;;;;;;;10332569;28;20034;-78
2021/10/30 18:54:50;;;;;;;11.38;5.35;;;;;;;;;;10351264;28;20476;-78
2021/10/30 18:59:50;;;;;;;7.68;2.95;;;;;;;;;;10341495;28;20037;-78
2021/10/30 19:04:51;;;;;;;4.35;3.95;;;;;;;;;;10355562;28;20543;-78
2021/10/30 19:09:51;;;;;;;7.80;5.80;;;;;;;;;;10355179;28;20089;-78
2021/10/30 19:14:51;;;;;;;8.43;4.65;;;;;;;;;;10341038;28;20061;-78
2021/10/30 19:19:52;;;;;;;8.65;5.20;;;;;;;;;;10355876;28;20026;-78
2021/10/30 19:24:52;;;;;;;22.07;6.40;;;;;;;;;;10356422;28;20057;-78
2021/10/30 19:29:54;;;;;;;10.55;6.07;;;;;;;;;;10365872;28;20279;-77
2021/10/30 19:34:54;;;;;;;8.68;6.15;;;;;;;;;;10385484;28;20034;-79
2021/10/30 19:39:55;;;;;;;16.13;7.45;;;;;;;;;;10374178;28;20030;-78
2021/10/30 19:44:55;;;;;;;9.43;7.40;;;;;;;;;;10356830;28;20030;-78
2021/10/30 19:49:56;;;;;;;12.77;7.03;;;;;;;;;;10338583;28;20104;-78
2021/10/30 19:54:57;;;;;;;6.10;5.40;;;;;;;;;;10354721;28;20070;-78
2021/10/30 19:59:59;;;;;;;7.50;5.65;;;;;;;;;;10338424;28;20432;-78
2021/10/30 20:04:59;;;;;;;5.10;4.43;;;;;;;;;;10352871;28;20089;-78
2021/10/30 20:10:00;;;;;;;10.98;5.65;;;;;;;;;;10352121;28;20066;-78
2021/10/30 20:15:00;;;;;;;9.38;4.72;;;;;;;;;;10337549;28;20431;-78
2021/10/30 20:20:00;;;;;;;8.43;5.22;;;;;;;;;;10353163;28;20022;-78
2021/10/30 20:25:01;;;;;;;8.70;5.60;;;;;;;;;;10336015;28;20567;-78
2021/10/30 20:30:01;;;;;;;9.20;4.47;;;;;;;;;;10351973;28;20279;-78
2021/10/30 20:35:02;;;;;;;12.95;4.40;;;;;;;;;;10351518;28;20280;-79
2021/10/30 20:40:03;;;;;;;11.82;4.45;;;;;;;;;;10351731;28;20081;-78
2021/10/30 20:45:03;;;;;;;8.27;4.07;;;;;;;;;;10335154;28;20431;-78
2021/10/30 20:50:05;;;;;;;6.43;4.30;;;;;;;;;;10351896;28;20039;-78
2021/10/30 20:55:05;;;;;;;6.75;5.78;;;;;;;;;;10334738;28;20380;-78
2021/10/30 21:00:06;;;;;;;6.45;4.65;;;;;;;;;;10350929;28;20033;-78
2021/10/30 21:05:07;;;;;;;14.85;5.30;;;;;;;;;;10351873;28;20120;-78
2021/10/30 21:10:07;;;;;;;7.23;6.07;;;;;;;;;;10350947;28;20062;-78
2021/10/30 21:15:07;;;;;;;13.93;4.63;;;;;;;;;;10335374;28;20299;-78
2021/10/30 21:20:08;;;;;;;10.18;5.25;;;;;;;;;;10350181;28;20426;-78
2021/10/30 21:25:08;;;;;;;18.15;6.13;;;;;;;;;;10334132;28;20525;-78
2021/10/30 21:30:09;;;;;;;5.57;5.05;;;;;;;;;;10349704;28;20030;-78
2021/10/30 21:35:09;;;;;;;6.68;4.88;;;;;;;;;;10335092;28;20034;-76
2021/10/30 21:40:10;;;;;;;6.47;4.85;;;;;;;;;;10349481;28;20046;-77
2021/10/30 21:45:10;;;;;;;7.57;5.80;;;;;;;;;;10334626;28;20030;-77
2021/10/30 21:50:17;;;;;;;8.07;4.65;;;;;;;;;;10349220;28;20034;-78
2021/10/30 21:55:17;;;;;;;12.65;5.18;;;;;;;;;;10334560;28;20026;-78
2021/10/30 22:00:18;;;;;;;8.25;4.45;;;;;;;;;;10345200;28;20089;-77
2021/10/30 22:05:20;;;;;;;23.45;6.07;;;;;;;;;;10382878;28;20025;-78
2021/10/30 22:10:20;;;;;;;18.70;4.95;;;;;;;;;;10376760;28;20496;-78
2021/10/30 22:15:20;;;;;;;14.98;6.22;;;;;;;;;;10334817;28;20065;-78
2021/10/30 22:20:21;;;;;;;8.00;6.13;;;;;;;;;;10348990;28;20479;-77
2021/10/30 22:25:21;;;;;;;19.67;6.50;;;;;;;;;;10348573;28;20038;-77
2021/10/30 22:30:21;;;;;;;11.35;6.47;;;;;;;;;;10352831;28;20026;-77
2021/10/30 22:35:23;;;;;;;14.13;5.43;;;;;;;;;;10356698;28;20061;-77
2021/10/30 22:40:23;;;;;;;10.88;4.93;;;;;;;;;;10341357;28;20038;-77
2021/10/30 22:45:24;;;;;;;14.82;4.85;;;;;;;;;;10341517;28;20034;-78
2021/10/30 22:50:24;;;;;;;13.25;5.32;;;;;;;;;;10356269;28;20113;-78
2021/10/30 22:55:25;;;;;;;11.20;6.15;;;;;;;;;;10356063;28;20109;-78
2021/10/30 23:00:25;;;;;;;8.52;5.20;;;;;;;;;;10339482;28;20041;-78
2021/10/30 23:05:29;;;;;;;22.25;7.13;;;;;;;;;;10341121;28;20061;-78
2021/10/30 23:10:30;;;;;;;12.63;5.90;;;;;;;;;;10338461;28;20503;-78
2021/10/30 23:15:30;;;;;;;26.23;7.05;;;;;;;;;;10339133;28;20062;-79
2021/10/30 23:20:31;;;;;;;14.15;6.45;;;;;;;;;;10354697;28;20539;-78
2021/10/30 23:25:33;;;;;;;9.43;6.65;;;;;;;;;;10355549;28;20033;-78
2021/10/30 23:30:33;;;;;;;13.23;5.30;;;;;;;;;;10337811;28;20026;-79
2021/10/30 23:35:34;;;;;;;7.95;5.00;;;;;;;;;;10354504;28;20033;-78
2021/10/30 23:40:34;;;;;;;14.68;6.38;;;;;;;;;;10338553;28;20034;-79
2021/10/30 23:45:36;;;;;;;11.77;6.15;;;;;;;;;;10339311;28;20022;-78
2021/10/30 23:50:36;;;;;;;6.75;5.07;;;;;;;;;;10354545;28;20086;-79
2021/10/30 23:55:36;;;;;;;10.00;5.57;;;;;;;;;;10354646;28;20111;-79
